createdAt,value
2019-04-23T00:01:23.834Z,54.90
2019-04-23T00:03:50.025Z,55.10
2019-04-23T00:06:43.314Z,55.50
2019-04-23T00:09:05.412Z,55.60
2019-04-23T00:16:50.324Z,55.90
2019-04-23T00:19:02.632Z,55.80
2019-04-23T00:21:53.453Z,55.90
2019-04-23T00:30:12.941Z,56.20
2019-04-23T00:37:37.392Z,56.80
2019-04-23T00:40:15.392Z,56.80
2019-04-23T00:42:41.665Z,56.70
2019-04-23T00:45:24.731Z,56.60
2019-04-23T00:47:48.306Z,56.90
2019-04-23T00:50:38.441Z,56.80
2019-04-23T00:52:50.751Z,56.90
2019-04-23T00:55:22.806Z,57.20
2019-04-23T00:58:02.848Z,57.20
2019-04-23T01:00:34.073Z,57.30
2019-04-23T01:03:05.819Z,57.50
2019-04-23T01:05:31.129Z,57.60
2019-04-23T01:08:06.797Z,57.60
2019-04-23T01:10:57.205Z,58.00
2019-04-23T01:13:31.952Z,58.10
2019-04-23T01:18:50.620Z,58.30
2019-04-23T01:20:56.105Z,58.30
2019-04-23T01:23:51.604Z,58.40
2019-04-23T01:26:35.455Z,58.60
2019-04-23T01:29:14.021Z,58.70
2019-04-23T01:31:47.808Z,58.80
2019-04-23T01:34:21.719Z,59.00
2019-04-23T01:36:54.516Z,59.30
2019-04-23T01:39:39.713Z,59.60
2019-04-23T01:42:08.821Z,59.60
2019-04-23T01:44:36.713Z,59.70
2019-04-23T01:47:00.714Z,59.80
2019-04-23T01:49:50.358Z,59.80
2019-04-23T01:52:08.309Z,60.20
2019-04-23T01:54:45.827Z,60.20
2019-04-23T01:57:16.652Z,60.80
2019-04-23T01:59:48.610Z,60.80
2019-04-23T02:02:22.077Z,60.80
2019-04-23T02:04:55.734Z,61.10
2019-04-23T02:07:31.054Z,61.40
2019-04-23T02:10:16.751Z,61.20
2019-04-23T02:12:28.597Z,61.60
2019-04-23T02:14:57.262Z,62.30
2019-04-23T02:17:31.247Z,62.10
2019-04-23T02:20:08.983Z,62.10
2019-04-23T02:30:53.254Z,62.90
2019-04-23T02:33:17.712Z,63.30
2019-04-23T02:38:52.395Z,63.20
2019-04-23T02:41:29.716Z,63.40
2019-04-23T02:44:09.207Z,63.80
2019-04-23T02:46:21.953Z,64.10
2019-04-23T02:49:04.941Z,64.50
2019-04-23T02:51:39.586Z,64.40
2019-04-23T02:56:46.946Z,65.00
2019-04-23T02:59:19.055Z,65.20
2019-04-23T03:01:40.023Z,65.00
2019-04-23T03:04:34.146Z,65.50
2019-04-23T03:06:58.463Z,65.60
2019-04-23T03:09:27.898Z,65.70
2019-04-23T03:12:02.651Z,66.10
2019-04-23T03:14:25.048Z,66.10
2019-04-23T03:17:02.994Z,66.30
2019-04-23T03:19:47.959Z,66.50
2019-04-23T03:22:15.679Z,66.60
2019-04-23T03:25:15.309Z,66.80
2019-04-23T03:27:41.948Z,67.10
2019-04-23T03:30:26.397Z,67.40
2019-04-23T03:35:19.459Z,67.50
2019-04-23T03:37:58.568Z,68.10
2019-04-23T03:40:21.223Z,68.10
2019-04-23T03:43:47.014Z,68.70
2019-04-23T03:45:55.823Z,68.70
2019-04-23T03:48:08.069Z,68.70
2019-04-23T03:50:43.633Z,69.00
2019-04-23T03:53:22.552Z,69.00
2019-04-23T03:55:49.678Z,69.60
2019-04-23T03:58:22.590Z,69.70
2019-04-23T04:04:12.535Z,70.10
2019-04-23T04:06:31.210Z,70.40
2019-04-23T04:08:58.439Z,70.80
2019-04-23T04:11:25.098Z,70.90
2019-04-23T04:14:10.181Z,71.10
2019-04-23T04:16:28.223Z,71.80
2019-04-23T04:21:52.084Z,72.20
2019-04-23T04:31:48.511Z,73.30
2019-04-23T04:34:55.517Z,73.70
2019-04-23T04:39:43.068Z,74.00
2019-04-23T04:42:02.561Z,73.90
2019-04-23T04:44:42.683Z,74.00
2019-04-23T04:47:00.797Z,74.10
2019-04-23T04:49:49.387Z,74.50
2019-04-23T04:52:22.907Z,75.10
2019-04-23T04:54:24.556Z,75.20
2019-04-23T04:57:20.371Z,75.20
2019-04-23T04:59:59.440Z,75.50
2019-04-23T05:07:32.711Z,76.10
2019-04-23T05:10:08.051Z,76.20
2019-04-23T05:12:32.655Z,76.10
2019-04-23T05:20:37.340Z,76.60
2019-04-23T05:23:16.388Z,76.70
2019-04-23T05:25:44.693Z,76.90
2019-04-23T05:28:49.205Z,77.00
2019-04-23T05:31:05.725Z,77.20
2019-04-23T05:33:49.364Z,77.30
2019-04-23T05:41:29.526Z,77.90
2019-04-23T05:44:04.673Z,77.70
2019-04-23T05:47:25.432Z,77.70
2019-04-23T05:52:24.031Z,78.00
2019-04-23T05:55:18.735Z,78.00
2019-04-23T05:58:08.862Z,78.00
2019-04-23T06:00:41.585Z,79.00
2019-04-23T06:03:24.806Z,78.40
2019-04-23T06:05:54.399Z,78.80
2019-04-23T06:11:02.386Z,78.90
2019-04-23T06:13:35.583Z,79.30
2019-04-23T06:16:05.176Z,79.10
2019-04-23T06:18:59.239Z,79.50
2019-04-23T06:21:33.954Z,79.70
2019-04-23T06:24:29.226Z,80.70
2019-04-23T06:27:06.747Z,79.70
2019-04-23T06:29:57.409Z,79.80
2019-04-23T06:32:32.234Z,80.00
2019-04-23T06:35:03.531Z,80.00
2019-04-23T06:43:21.406Z,80.30
2019-04-23T06:45:43.457Z,79.80
2019-04-23T06:48:33.801Z,80.70
2019-04-23T06:51:27.150Z,80.40
2019-04-23T06:53:51.287Z,80.30
2019-04-23T06:56:40.655Z,80.20
2019-04-23T06:59:07.632Z,80.20
2019-04-23T07:01:36.581Z,80.20
2019-04-23T07:04:12.358Z,80.00
2019-04-23T07:06:46.765Z,80.10
2019-04-23T07:09:18.616Z,79.60
2019-04-23T07:12:05.336Z,79.80
2019-04-23T07:14:21.867Z,80.00
2019-04-23T07:16:52.845Z,80.10
2019-04-23T07:20:00.232Z,80.20
2019-04-23T07:22:42.853Z,79.00
2019-04-23T07:25:15.393Z,78.70
2019-04-23T07:27:49.258Z,78.90
2019-04-23T07:30:52.080Z,79.50
2019-04-23T07:33:28.140Z,79.40
2019-04-23T07:36:08.565Z,79.80
2019-04-23T07:42:20.607Z,79.10
2019-04-23T07:45:09.398Z,78.80
2019-04-23T07:53:39.982Z,78.20
2019-04-23T07:56:21.413Z,78.00
2019-04-23T07:59:13.873Z,78.60
2019-04-23T08:01:47.105Z,77.40
2019-04-23T08:04:16.871Z,79.00
2019-04-23T08:06:54.502Z,77.60
2019-04-23T08:09:34.215Z,77.90
2019-04-23T08:12:25.083Z,77.70
2019-04-23T08:14:55.362Z,77.00
2019-04-23T08:17:26.226Z,78.00
2019-04-23T08:19:59.591Z,78.40
2019-04-23T08:23:03.918Z,78.70
2019-04-23T08:26:17.558Z,77.90
2019-04-23T08:28:48.386Z,77.60
2019-04-23T08:31:27.492Z,77.70
2019-04-23T08:34:18.642Z,76.70
2019-04-23T08:36:58.303Z,76.50
2019-04-23T08:39:35.424Z,77.00
2019-04-23T08:42:33.077Z,77.10
2019-04-23T08:45:31.347Z,77.00
2019-04-23T08:48:33.457Z,77.10
2019-04-23T08:50:50.691Z,77.60
2019-04-23T08:56:08.705Z,78.10
2019-04-23T08:58:41.662Z,77.00
2019-04-23T09:01:46.389Z,77.60
2019-04-23T09:03:51.275Z,76.30
2019-04-23T09:08:56.994Z,75.10
2019-04-23T09:11:45.835Z,75.60
2019-04-23T09:14:27.646Z,75.50
2019-04-23T09:17:11.429Z,75.80
2019-04-23T09:20:13.185Z,75.90
2019-04-23T09:22:46.457Z,76.30
2019-04-23T09:28:31.101Z,76.10
2019-04-23T09:36:59.627Z,76.50
2019-04-23T09:39:51.228Z,74.80
2019-04-23T09:43:09.989Z,74.90
2019-04-23T09:46:04.683Z,74.80
2019-04-23T09:48:50.890Z,75.70
2019-04-23T09:51:24.155Z,75.40
2019-04-23T09:54:12.951Z,75.70
2019-04-23T09:56:47.743Z,74.90
2019-04-23T10:02:10.468Z,75.60
2019-04-23T10:04:41.153Z,74.80
2019-04-23T10:07:16.406Z,75.00
2019-04-23T10:09:44.586Z,76.40
2019-04-23T10:12:20.087Z,75.50
2019-04-23T10:15:13.788Z,76.00
2019-04-23T10:17:28.389Z,75.40
2019-04-23T10:20:02.701Z,75.80
2019-04-23T10:22:42.210Z,75.30
2019-04-23T10:25:22.726Z,75.80
2019-04-23T10:28:04.995Z,74.90
2019-04-23T10:30:38.498Z,74.20
2019-04-23T10:33:11.638Z,75.20
2019-04-23T10:35:53.122Z,75.00
2019-04-23T10:38:20.221Z,74.20
2019-04-23T10:40:50.156Z,73.60
2019-04-23T10:43:31.536Z,73.90
2019-04-23T10:46:43.301Z,74.50
2019-04-23T10:55:38.288Z,73.90
2019-04-23T11:04:00.369Z,73.60
2019-04-23T11:06:25.291Z,73.50
2019-04-23T11:09:42.542Z,72.70
2019-04-23T11:12:26.867Z,72.00
2019-04-23T11:17:38.349Z,72.80
2019-04-23T11:20:22.465Z,71.60
2019-04-23T11:25:28.080Z,71.50
2019-04-23T11:27:58.576Z,70.80
2019-04-23T11:30:44.984Z,71.20
2019-04-23T11:33:50.966Z,71.70
2019-04-23T11:36:53.681Z,72.30
2019-04-23T11:39:21.703Z,71.30
2019-04-23T11:44:26.675Z,70.80
2019-04-23T11:47:12.524Z,71.20
2019-04-23T11:52:32.166Z,70.50
2019-04-23T11:55:00.699Z,69.00
2019-04-23T12:00:13.775Z,69.90
2019-04-23T12:03:02.701Z,69.20
2019-04-23T12:08:43.129Z,68.90
2019-04-23T12:15:11.705Z,67.80
2019-04-23T12:17:45.992Z,68.20
2019-04-23T12:20:26.733Z,67.30
2019-04-23T12:22:51.222Z,68.70
2019-04-23T12:25:37.830Z,68.40
2019-04-23T12:28:18.101Z,67.70
2019-04-23T12:30:50.560Z,67.40
2019-04-23T12:33:39.122Z,68.00
2019-04-23T12:36:42.198Z,68.30
2019-04-23T12:42:19.780Z,68.60
2019-04-23T12:53:43.238Z,69.50
2019-04-23T12:56:43.858Z,68.80
2019-04-23T12:59:25.290Z,68.50
2019-04-23T13:02:22.890Z,67.40
2019-04-23T13:04:38.101Z,67.80
2019-04-23T13:07:09.010Z,68.40
2019-04-23T13:09:55.170Z,68.30
2019-04-23T13:12:32.827Z,68.10
2019-04-23T13:15:00.791Z,67.20
2019-04-23T13:20:03.708Z,67.80
2019-04-23T13:22:46.158Z,67.80
2019-04-23T13:25:40.281Z,68.30
2019-04-23T13:28:13.008Z,69.90
2019-04-23T13:30:56.509Z,68.30
2019-04-23T13:38:36.380Z,68.60
2019-04-23T13:43:42.521Z,67.60
2019-04-23T13:46:13.832Z,67.40
2019-04-23T13:48:45.482Z,68.50
2019-04-23T13:54:01.648Z,68.00
2019-04-23T13:59:21.671Z,68.00
2019-04-23T14:01:46.585Z,68.30
2019-04-23T14:04:44.636Z,67.90
2019-04-23T14:07:16.734Z,69.20
2019-04-23T14:12:20.423Z,69.40
2019-04-23T14:20:01.028Z,68.90
2019-04-23T14:25:10.203Z,69.20
2019-04-23T14:27:56.533Z,69.20
2019-04-23T14:32:54.246Z,69.80
2019-04-23T14:35:40.193Z,68.80
2019-04-23T14:41:07.850Z,69.00
2019-04-23T14:43:40.334Z,69.20
2019-04-23T14:46:34.913Z,68.90
2019-04-23T14:48:56.978Z,68.90
2019-04-23T14:51:46.408Z,69.00
2019-04-23T14:54:23.481Z,69.40
2019-04-23T14:56:42.073Z,69.70
2019-04-23T15:01:39.889Z,69.80
2019-04-23T15:04:10.891Z,69.60
2019-04-23T15:06:50.900Z,69.30
2019-04-23T15:09:27.622Z,69.80
2019-04-23T15:14:56.317Z,71.00
2019-04-23T15:17:49.689Z,70.90
2019-04-23T15:20:23.021Z,70.50
2019-04-23T15:23:31.814Z,69.50
2019-04-23T15:26:19.852Z,69.40
2019-04-23T15:28:10.103Z,70.00
2019-04-23T15:31:15.395Z,69.50
2019-04-23T15:33:57.208Z,68.90
2019-04-23T15:36:32.799Z,68.20
2019-04-23T15:38:53.629Z,67.30
2019-04-23T15:46:41.085Z,68.00
2019-04-23T15:49:15.988Z,67.70
2019-04-23T15:54:19.635Z,67.30
2019-04-23T15:56:56.405Z,68.20
2019-04-23T15:59:34.997Z,67.10
2019-04-23T16:01:41.158Z,67.00
2019-04-23T16:04:01.354Z,66.60
2019-04-23T16:06:34.781Z,66.30
2019-04-23T16:09:21.097Z,66.80
2019-04-23T16:15:12.900Z,67.10
2019-04-23T16:17:37.448Z,67.00
2019-04-23T16:22:55.281Z,67.70
2019-04-23T16:25:43.097Z,67.60
2019-04-23T16:28:23.962Z,67.90
2019-04-23T16:30:56.469Z,68.10
2019-04-23T16:33:31.981Z,68.20
2019-04-23T16:36:21.832Z,68.10
2019-04-23T16:38:52.223Z,68.60
2019-04-23T16:43:59.680Z,68.40
2019-04-23T16:46:26.948Z,68.90
2019-04-23T16:49:06.780Z,70.20
2019-04-23T16:54:09.939Z,69.60
2019-04-23T16:56:55.633Z,70.10
2019-04-23T17:01:52.145Z,69.90
2019-04-23T17:06:52.416Z,70.00
2019-04-23T17:09:38.856Z,70.20
2019-04-23T17:12:05.898Z,70.10
2019-04-23T17:14:33.003Z,70.30
2019-04-23T17:17:09.953Z,71.00
2019-04-23T17:19:48.361Z,71.00
2019-04-23T17:22:31.491Z,71.10
2019-04-23T17:27:28.103Z,71.30
2019-04-23T17:30:11.607Z,71.50
2019-04-23T17:33:01.758Z,72.10
2019-04-23T17:35:45.971Z,72.20
2019-04-23T17:38:30.341Z,72.40
2019-04-23T17:41:00.065Z,72.70
2019-04-23T17:43:41.508Z,73.00
2019-04-23T17:46:14.624Z,72.80
2019-04-23T17:48:53.132Z,73.60
2019-04-23T17:51:19.429Z,73.60
2019-04-23T17:54:06.993Z,73.70
2019-04-23T17:56:47.761Z,74.10
2019-04-23T17:59:22.511Z,74.60
2019-04-23T18:01:59.501Z,74.90
2019-04-23T18:07:04.453Z,74.70
2019-04-23T18:09:37.113Z,75.20
2019-04-23T18:12:53.762Z,75.10
2019-04-23T18:14:55.728Z,75.60
2019-04-23T18:20:13.359Z,76.70
2019-04-23T18:23:00.453Z,76.20
2019-04-23T18:25:45.997Z,76.50
2019-04-23T18:28:08.225Z,76.10
2019-04-23T18:31:12.969Z,77.60
2019-04-23T18:36:19.787Z,77.20
2019-04-23T18:41:31.423Z,78.20
2019-04-23T18:44:24.973Z,78.10
2019-04-23T18:49:49.150Z,79.70
2019-04-23T18:54:48.030Z,79.60
2019-04-23T18:57:36.796Z,79.60
2019-04-23T19:03:12.785Z,80.30
2019-04-23T19:06:18.852Z,80.80
2019-04-23T19:11:51.198Z,80.90
2019-04-23T19:14:21.306Z,81.40
2019-04-23T19:17:07.499Z,81.80
2019-04-23T19:27:18.368Z,83.10
2019-04-23T19:32:41.252Z,83.70
2019-04-23T19:35:16.200Z,83.80
2019-04-23T19:37:56.099Z,84.20
2019-04-23T19:40:37.866Z,84.40
2019-04-23T19:43:05.775Z,84.90
2019-04-23T19:45:56.358Z,85.20
2019-04-23T19:48:25.415Z,85.40
2019-04-23T19:51:07.557Z,85.60
2019-04-23T19:53:43.143Z,86.10
2019-04-23T19:58:54.443Z,86.50
2019-04-23T20:01:16.524Z,86.70
2019-04-23T20:03:49.607Z,87.20
2019-04-23T20:06:32.813Z,87.10
2019-04-23T20:13:55.429Z,88.40
2019-04-23T20:16:40.123Z,88.40
2019-04-23T20:19:31.488Z,88.90
2019-04-23T20:22:00.581Z,88.80
2019-04-23T20:24:39.352Z,89.40
2019-04-23T20:30:21.157Z,90.00
2019-04-23T20:33:26.503Z,90.10
2019-04-23T20:42:58.770Z,90.70
2019-04-23T20:46:03.486Z,90.90
2019-04-23T20:48:35.151Z,91.00
2019-04-23T20:50:50.774Z,91.50
2019-04-23T20:53:31.361Z,91.40
2019-04-23T20:56:10.141Z,91.40
2019-04-23T20:59:11.429Z,91.30
2019-04-23T21:01:55.644Z,91.60
2019-04-23T21:04:42.631Z,91.90
2019-04-23T21:07:17.593Z,92.00
2019-04-23T21:10:01.243Z,92.10
2019-04-23T21:12:45.989Z,92.40
2019-04-23T21:15:05.418Z,92.50
2019-04-23T21:17:35.733Z,92.70
2019-04-23T21:20:08.178Z,92.60
2019-04-23T21:22:32.143Z,92.80
2019-04-23T21:25:02.705Z,93.00
2019-04-23T21:30:48.965Z,93.10
2019-04-23T21:44:42.045Z,93.90
2019-04-23T21:47:11.099Z,94.10
2019-04-23T21:50:11.912Z,94.00
2019-04-23T21:55:00.515Z,94.70
2019-04-23T21:57:35.386Z,94.80
2019-04-23T22:00:02.614Z,94.70
2019-04-23T22:02:58.456Z,95.00
2019-04-23T22:05:09.005Z,95.30
2019-04-23T22:07:51.904Z,95.30
2019-04-23T22:15:34.336Z,95.50
2019-04-23T22:17:59.852Z,95.90
2019-04-23T22:20:38.328Z,95.70
2019-04-23T22:23:14.464Z,95.90
2019-04-23T22:25:52.599Z,96.10
2019-04-23T22:28:11.447Z,96.00
2019-04-23T22:33:31.447Z,96.30
2019-04-23T22:38:26.574Z,96.70
2019-04-23T22:41:01.798Z,96.40
2019-04-23T22:43:44.535Z,96.30
2019-04-23T22:46:15.497Z,96.10
2019-04-23T22:51:46.361Z,96.50
2019-04-23T22:54:11.419Z,96.90
2019-04-23T22:59:27.887Z,97.00
2019-04-23T23:04:40.953Z,97.30
2019-04-23T23:07:21.911Z,97.40
2019-04-23T23:12:28.787Z,97.50
2019-04-23T23:14:57.437Z,97.50
2019-04-23T23:17:20.640Z,97.90
2019-04-23T23:20:15.490Z,98.10
2019-04-23T23:22:27.505Z,98.40
2019-04-23T23:25:11.455Z,98.50
2019-04-23T23:27:44.625Z,98.70
2019-04-23T23:32:55.607Z,98.80
2019-04-23T23:35:24.636Z,99.40
2019-04-23T23:37:42.304Z,99.20
2019-04-23T23:40:21.572Z,99.80
2019-04-23T23:43:08.150Z,99.30
2019-04-23T23:47:59.518Z,99.90
2019-04-23T23:50:25.558Z,99.90
2019-04-23T23:53:02.684Z,99.90
2019-04-23T23:55:31.856Z,99.90
2019-04-23T23:58:15.725Z,99.90
